createdAt,value
2018-12-01T00:02:06.383Z,95635.00
2018-12-01T00:04:36.990Z,95632.00
2018-12-01T00:07:07.300Z,95644.00
2018-12-01T00:09:37.982Z,95640.00
2018-12-01T00:12:08.362Z,95636.00
2018-12-01T00:14:39.112Z,95640.00
2018-12-01T00:17:09.435Z,95632.00
2018-12-01T00:19:40.024Z,95640.00
2018-12-01T00:22:10.341Z,95637.00
2018-12-01T00:24:40.925Z,95644.00
2018-12-01T00:27:11.261Z,95642.00
2018-12-01T00:29:41.706Z,95637.00
2018-12-01T00:32:12.046Z,95635.00
2018-12-01T00:34:42.332Z,95635.00
2018-12-01T00:37:12.723Z,95624.00
2018-12-01T00:39:43.040Z,95641.00
2018-12-01T00:42:13.359Z,95636.00
2018-12-01T00:44:43.754Z,95636.00
2018-12-01T00:47:14.097Z,95645.00
2018-12-01T00:49:44.549Z,95646.00
2018-12-01T00:52:14.874Z,95644.00
2018-12-01T00:54:45.200Z,95639.00
2018-12-01T00:57:15.509Z,95642.00
2018-12-01T00:59:45.790Z,95647.00
2018-12-01T01:02:21.336Z,95657.00
2018-12-01T01:04:51.597Z,95649.00
2018-12-01T01:07:21.949Z,95653.00
2018-12-01T01:09:52.263Z,95656.00
2018-12-01T01:12:22.573Z,95659.00
2018-12-01T01:14:52.855Z,95658.00
2018-12-01T01:17:23.199Z,95663.00
2018-12-01T01:19:53.470Z,95661.00
2018-12-01T01:22:23.769Z,95656.00
2018-12-01T01:24:54.070Z,95665.00
2018-12-01T01:27:24.381Z,95680.00
2018-12-01T01:29:54.638Z,95680.00
2018-12-01T01:32:24.925Z,95684.00
2018-12-01T01:34:55.214Z,95674.00
2018-12-01T01:37:25.520Z,95679.00
2018-12-01T01:39:55.777Z,95672.00
2018-12-01T01:42:26.163Z,95670.00
2018-12-01T01:44:56.410Z,95673.00
2018-12-01T01:47:26.706Z,95675.00
2018-12-01T01:49:57.048Z,95675.00
2018-12-01T01:52:27.343Z,95675.00
2018-12-01T01:54:57.702Z,95676.00
2018-12-01T01:57:28.007Z,95674.00
2018-12-01T01:59:58.349Z,95678.00
2018-12-01T02:02:28.638Z,95686.00
2018-12-01T02:04:59.207Z,95682.00
2018-12-01T02:07:29.485Z,95679.00
2018-12-01T02:09:59.813Z,95684.00
2018-12-01T02:12:30.122Z,95676.00
2018-12-01T02:15:00.454Z,95682.00
2018-12-01T02:17:30.782Z,95685.00
2018-12-01T02:20:01.115Z,95676.00
2018-12-01T02:22:31.495Z,95678.00
2018-12-01T02:25:01.817Z,95686.00
2018-12-01T02:27:32.313Z,95681.00
2018-12-01T02:30:02.657Z,95679.00
2018-12-01T02:32:33.082Z,95678.00
2018-12-01T02:35:03.452Z,95681.00
2018-12-01T02:37:34.147Z,95682.00
2018-12-01T02:40:06.982Z,95676.00
2018-12-01T02:42:37.360Z,95671.00
2018-12-01T02:45:24.426Z,95676.00
2018-12-01T02:47:54.824Z,95685.00
2018-12-01T02:50:25.936Z,95688.00
2018-12-01T02:52:57.761Z,95693.00
2018-12-01T02:55:28.239Z,95688.00
2018-12-01T02:57:58.581Z,95691.00
2018-12-01T03:00:28.883Z,95688.00
2018-12-01T03:02:59.206Z,95698.00
2018-12-01T03:05:29.489Z,95689.00
2018-12-01T03:07:59.849Z,95689.00
2018-12-01T03:10:30.229Z,95692.00
2018-12-01T03:13:00.581Z,95691.00
2018-12-01T03:15:30.860Z,95690.00
2018-12-01T03:18:01.252Z,95704.00
2018-12-01T03:20:31.537Z,95688.00
2018-12-01T03:23:01.870Z,95701.00
2018-12-01T03:25:32.193Z,95691.00
2018-12-01T03:28:02.545Z,95696.00
2018-12-01T03:30:32.832Z,95700.00
2018-12-01T03:33:03.173Z,95698.00
2018-12-01T03:35:33.465Z,95703.00
2018-12-01T03:38:03.785Z,95699.00
2018-12-01T03:40:39.649Z,95702.00
2018-12-01T03:43:09.966Z,95703.00
2018-12-01T03:45:40.268Z,95698.00
2018-12-01T03:48:10.752Z,95699.00
2018-12-01T03:50:41.075Z,95698.00
2018-12-01T03:53:12.861Z,95705.00
2018-12-01T03:55:43.334Z,95710.00
2018-12-01T03:58:13.579Z,95703.00
2018-12-01T04:00:44.221Z,95707.00
2018-12-01T04:03:14.484Z,95705.00
2018-12-01T04:05:45.016Z,95700.00
2018-12-01T04:08:15.280Z,95704.00
2018-12-01T04:10:45.611Z,95715.00
2018-12-01T04:13:15.913Z,95717.00
2018-12-01T04:15:46.248Z,95716.00
2018-12-01T04:18:16.545Z,95701.00
2018-12-01T04:20:46.877Z,95703.00
2018-12-01T04:23:17.212Z,95710.00
2018-12-01T04:25:47.574Z,95709.00
2018-12-01T04:28:17.861Z,95714.00
2018-12-01T04:30:48.210Z,95704.00
2018-12-01T04:33:18.537Z,95720.00
2018-12-01T04:35:49.264Z,95720.00
2018-12-01T04:38:19.592Z,95641.00
2018-12-01T04:40:49.994Z,95711.00
2018-12-01T04:43:20.310Z,95719.00
2018-12-01T04:45:51.106Z,95719.00
2018-12-01T04:48:21.455Z,95731.00
2018-12-01T04:50:52.055Z,95722.00
2018-12-01T04:53:22.381Z,95735.00
2018-12-01T04:55:52.833Z,95732.00
2018-12-01T04:58:23.133Z,95740.00
2018-12-01T05:00:53.469Z,95736.00
2018-12-01T05:03:23.757Z,95734.00
2018-12-01T05:05:54.093Z,95728.00
2018-12-01T05:08:24.384Z,95730.00
2018-12-01T05:10:54.709Z,95727.00
2018-12-01T05:13:25.033Z,95729.00
2018-12-01T05:15:55.377Z,95738.00
2018-12-01T05:18:25.677Z,95747.00
2018-12-01T05:20:56.041Z,95736.00
2018-12-01T05:23:26.337Z,95726.00
2018-12-01T05:25:56.648Z,95741.00
2018-12-01T05:28:26.981Z,95724.00
2018-12-01T05:30:57.323Z,95730.00
2018-12-01T05:33:27.624Z,95738.00
2018-12-01T05:35:57.928Z,95739.00
2018-12-01T05:38:28.207Z,95733.00
2018-12-01T05:40:58.461Z,95755.00
2018-12-01T05:43:28.757Z,95754.00
2018-12-01T05:45:59.008Z,95746.00
2018-12-01T05:48:29.302Z,95744.00
2018-12-01T05:50:59.573Z,95753.00
2018-12-01T05:53:29.926Z,95756.00
2018-12-01T05:56:00.213Z,95753.00
2018-12-01T05:58:30.513Z,95759.00
2018-12-01T06:01:00.760Z,95761.00
2018-12-01T06:03:31.191Z,95761.00
2018-12-01T06:06:01.496Z,95762.00
2018-12-01T06:08:31.793Z,95754.00
2018-12-01T06:11:02.099Z,95766.00
2018-12-01T06:13:33.166Z,95761.00
2018-12-01T06:16:03.468Z,95767.00
2018-12-01T06:18:33.801Z,95774.00
2018-12-01T06:21:04.397Z,95766.00
2018-12-01T06:23:34.729Z,95770.00
2018-12-01T06:26:05.060Z,95786.00
2018-12-01T06:28:35.672Z,95779.00
2018-12-01T06:31:05.972Z,95778.00
2018-12-01T06:33:37.072Z,95785.00
2018-12-01T06:36:07.909Z,95791.00
2018-12-01T06:38:38.384Z,95781.00
2018-12-01T06:41:09.332Z,95777.00
2018-12-01T06:43:40.085Z,95782.00
2018-12-01T06:46:10.365Z,95780.00
2018-12-01T06:48:41.039Z,95776.00
2018-12-01T06:51:11.315Z,95791.00
2018-12-01T06:53:41.933Z,95794.00
2018-12-01T06:56:12.228Z,95799.00
2018-12-01T06:58:43.593Z,95805.00
2018-12-01T07:01:13.869Z,95803.00
2018-12-01T07:03:44.200Z,95807.00
2018-12-01T07:06:14.477Z,95824.00
2018-12-01T07:08:45.036Z,95810.00
2018-12-01T07:11:15.309Z,95816.00
2018-12-01T07:13:45.949Z,95805.00
2018-12-01T07:16:16.257Z,95810.00
2018-12-01T07:19:05.390Z,95820.00
2018-12-01T07:21:35.692Z,95828.00
2018-12-01T07:24:06.060Z,95818.00
2018-12-01T07:26:37.048Z,95828.00
2018-12-01T07:29:07.409Z,95831.00
2018-12-01T07:31:38.084Z,95822.00
2018-12-01T07:34:08.441Z,95821.00
2018-12-01T07:36:39.026Z,95822.00
2018-12-01T07:39:10.683Z,95818.00
2018-12-01T07:41:41.255Z,95818.00
2018-12-01T07:44:11.512Z,95833.00
2018-12-01T07:46:42.008Z,95819.00
2018-12-01T07:49:12.300Z,95829.00
2018-12-01T07:51:42.708Z,95824.00
2018-12-01T07:54:13.056Z,95824.00
2018-12-01T07:56:43.840Z,95833.00
2018-12-01T07:59:14.102Z,95839.00
2018-12-01T08:01:44.606Z,95835.00
2018-12-01T08:04:15.868Z,95840.00
2018-12-01T08:06:46.706Z,95836.00
2018-12-01T08:09:16.972Z,95841.00
2018-12-01T08:11:47.356Z,95844.00
2018-12-01T08:14:17.652Z,95838.00
2018-12-01T08:16:47.985Z,95841.00
2018-12-01T08:19:18.282Z,95826.00
2018-12-01T08:21:48.550Z,95828.00
2018-12-01T08:24:18.850Z,95827.00
2018-12-01T08:26:49.118Z,95826.00
2018-12-01T08:29:19.405Z,95824.00
2018-12-01T08:31:49.673Z,95826.00
2018-12-01T08:34:20.057Z,95829.00
2018-12-01T08:36:50.784Z,95822.00
2018-12-01T08:39:21.185Z,95821.00
2018-12-01T08:41:51.465Z,95822.00
2018-12-01T08:44:21.821Z,95820.00
2018-12-01T08:46:52.141Z,95819.00
2018-12-01T08:49:22.572Z,95823.00
2018-12-01T08:51:52.897Z,95828.00
2018-12-01T08:54:23.714Z,95822.00
2018-12-01T08:56:54.218Z,95828.00
2018-12-01T08:59:24.772Z,95817.00
2018-12-01T09:01:55.520Z,95819.00
2018-12-01T09:04:25.801Z,95820.00
2018-12-01T09:06:56.253Z,95816.00
2018-12-01T09:09:26.504Z,95813.00
2018-12-01T09:11:57.085Z,95810.00
2018-12-01T09:14:27.437Z,95801.00
2018-12-01T09:16:57.728Z,95803.00
2018-12-01T09:19:28.017Z,95811.00
2018-12-01T09:21:58.317Z,95807.00
2018-12-01T09:24:28.565Z,95802.00
2018-12-01T09:26:58.868Z,95806.00
2018-12-01T09:29:29.140Z,95802.00
2018-12-01T09:31:59.496Z,95802.00
2018-12-01T09:34:29.763Z,95808.00
2018-12-01T09:37:00.108Z,95818.00
2018-12-01T09:39:30.352Z,95811.00
2018-12-01T09:42:00.959Z,95803.00
2018-12-01T09:44:31.217Z,95797.00
2018-12-01T09:47:01.552Z,95788.00
2018-12-01T09:49:31.837Z,95781.00
2018-12-01T09:52:02.182Z,95775.00
2018-12-01T09:54:32.976Z,95772.00
2018-12-01T09:57:03.624Z,95768.00
2018-12-01T09:59:33.888Z,95773.00
2018-12-01T10:02:04.301Z,95767.00
2018-12-01T10:04:34.572Z,95776.00
2018-12-01T10:07:05.081Z,95763.00
2018-12-01T10:09:35.461Z,95772.00
2018-12-01T10:12:06.704Z,95755.00
2018-12-01T10:14:37.848Z,95760.00
2018-12-01T10:17:08.148Z,95761.00
2018-12-01T10:19:39.310Z,95757.00
2018-12-01T10:22:10.045Z,95769.00
2018-12-01T10:24:40.308Z,95772.00
2018-12-01T10:27:11.092Z,95759.00
2018-12-01T10:29:41.545Z,95766.00
2018-12-01T10:32:12.105Z,95757.00
2018-12-01T10:34:42.495Z,95751.00
2018-12-01T10:37:13.121Z,95734.00
2018-12-01T10:39:43.582Z,95733.00
2018-12-01T10:42:14.365Z,95735.00
2018-12-01T10:44:45.116Z,95740.00
2018-12-01T10:47:15.446Z,95744.00
2018-12-01T10:49:45.712Z,95737.00
2018-12-01T10:52:16.115Z,95732.00
2018-12-01T10:54:46.912Z,95738.00
2018-12-01T10:57:17.236Z,95740.00
2018-12-01T10:59:48.292Z,95726.00
2018-12-01T11:02:23.797Z,95735.00
2018-12-01T11:04:54.106Z,95723.00
2018-12-01T11:07:24.456Z,95726.00
2018-12-01T11:09:54.741Z,95724.00
2018-12-01T11:12:25.052Z,95722.00
2018-12-01T11:14:55.323Z,95721.00
2018-12-01T11:17:25.630Z,95720.00
2018-12-01T11:19:56.297Z,95726.00
2018-12-01T11:22:26.640Z,95724.00
2018-12-01T11:24:56.992Z,95730.00
2018-12-01T11:27:27.391Z,95730.00
2018-12-01T11:29:57.649Z,95734.00
2018-12-01T11:32:27.973Z,95736.00
2018-12-01T11:34:58.341Z,95740.00
2018-12-01T11:37:28.669Z,95742.00
2018-12-01T11:39:59.364Z,95731.00
2018-12-01T11:42:29.685Z,95732.00
2018-12-01T11:45:00.077Z,95726.00
2018-12-01T11:47:30.424Z,95731.00
2018-12-01T11:50:00.746Z,95722.00
2018-12-01T11:52:31.045Z,95717.00
2018-12-01T11:55:01.373Z,95714.00
2018-12-01T11:57:31.649Z,95705.00
2018-12-01T12:00:01.954Z,95705.00
2018-12-01T12:02:32.829Z,95698.00
2018-12-01T12:05:03.228Z,95703.00
2018-12-01T12:07:50.598Z,95707.00
2018-12-01T12:10:20.951Z,95711.00
2018-12-01T12:12:51.264Z,95708.00
2018-12-01T12:15:23.024Z,95711.00
2018-12-01T12:18:02.206Z,95705.00
2018-12-01T12:20:32.833Z,95714.00
2018-12-01T12:23:03.106Z,95696.00
2018-12-01T12:25:33.430Z,95700.00
2018-12-01T12:28:03.894Z,95684.00
2018-12-01T12:30:34.297Z,95694.00
2018-12-01T12:33:04.988Z,95698.00
2018-12-01T12:35:35.384Z,95682.00
2018-12-01T12:38:05.775Z,95680.00
2018-12-01T12:40:36.493Z,95686.00
2018-12-01T12:43:07.334Z,95682.00
2018-12-01T12:45:38.299Z,95685.00
2018-12-01T12:48:09.448Z,95687.00
2018-12-01T12:50:40.416Z,95684.00
2018-12-01T12:53:10.698Z,95686.00
2018-12-01T12:55:41.992Z,95690.00
2018-12-01T12:58:12.285Z,95692.00
2018-12-01T13:00:43.126Z,95690.00
2018-12-01T13:03:14.085Z,95694.00
2018-12-01T13:05:47.020Z,95693.00
2018-12-01T13:08:19.365Z,95691.00
2018-12-01T13:10:50.041Z,95701.00
2018-12-01T13:13:20.306Z,95697.00
2018-12-01T13:15:50.741Z,95686.00
2018-12-01T13:18:21.001Z,95682.00
2018-12-01T13:20:51.353Z,95682.00
2018-12-01T13:23:21.657Z,95694.00
2018-12-01T13:25:52.538Z,95686.00
2018-12-01T13:28:25.480Z,95682.00
2018-12-01T13:31:00.312Z,95683.00
2018-12-01T13:33:36.124Z,95689.00
2018-12-01T13:36:06.906Z,95686.00
2018-12-01T13:38:37.214Z,95685.00
2018-12-01T13:41:07.590Z,95685.00
2018-12-01T13:43:37.874Z,95687.00
2018-12-01T13:46:08.355Z,95675.00
2018-12-01T13:48:38.525Z,95692.00
2018-12-01T13:51:08.901Z,95687.00
2018-12-01T13:53:39.223Z,95680.00
2018-12-01T13:56:09.622Z,95682.00
2018-12-01T13:58:39.948Z,95679.00
2018-12-01T14:01:10.304Z,95664.00
2018-12-01T14:03:40.612Z,95665.00
2018-12-01T14:06:10.947Z,95656.00
2018-12-01T14:08:41.291Z,95661.00
2018-12-01T14:11:11.732Z,95649.00
2018-12-01T14:13:42.333Z,95654.00
2018-12-01T14:16:12.998Z,95658.00
2018-12-01T14:18:44.083Z,95663.00
2018-12-01T14:21:16.656Z,95667.00
2018-12-01T14:23:47.113Z,95653.00
2018-12-01T14:26:17.511Z,95654.00
2018-12-01T14:28:48.150Z,95650.00
2018-12-01T14:31:18.501Z,95655.00
2018-12-01T14:33:49.285Z,95654.00
2018-12-01T14:36:19.780Z,95652.00
2018-12-01T14:38:50.324Z,95656.00
2018-12-01T14:41:20.812Z,95660.00
2018-12-01T14:43:51.174Z,95652.00
2018-12-01T14:46:23.732Z,95658.00
2018-12-01T14:48:52.170Z,95661.00
2018-12-01T14:51:22.508Z,95673.00
2018-12-01T14:53:53.318Z,95678.00
2018-12-01T14:56:23.653Z,95680.00
2018-12-01T14:58:54.067Z,95679.00
2018-12-01T15:01:24.365Z,95673.00
2018-12-01T15:03:55.142Z,95680.00
2018-12-01T15:06:25.393Z,95676.00
2018-12-01T15:08:55.734Z,95674.00
2018-12-01T15:11:26.036Z,95666.00
2018-12-01T15:13:56.984Z,95671.00
2018-12-01T15:16:27.249Z,95660.00
2018-12-01T15:18:57.540Z,95668.00
2018-12-01T15:21:27.836Z,95675.00
2018-12-01T15:23:58.134Z,95681.00
2018-12-01T15:26:28.645Z,95663.00
2018-12-01T15:28:59.056Z,95668.00
2018-12-01T15:31:29.345Z,95668.00
2018-12-01T15:33:59.904Z,95666.00
2018-12-01T15:36:30.257Z,95664.00
2018-12-01T15:39:00.959Z,95653.00
2018-12-01T15:41:31.257Z,95662.00
2018-12-01T15:44:01.724Z,95655.00
2018-12-01T15:46:32.049Z,95645.00
2018-12-01T15:49:03.177Z,95651.00
2018-12-01T15:51:32.666Z,95654.00
2018-12-01T15:54:02.948Z,95650.00
2018-12-01T15:56:33.277Z,95655.00
2018-12-01T15:59:03.537Z,95655.00
2018-12-01T16:01:33.863Z,95656.00
2018-12-01T16:04:04.305Z,95655.00
2018-12-01T16:06:36.600Z,95655.00
2018-12-01T16:09:11.496Z,95648.00
2018-12-01T16:11:42.527Z,95649.00
2018-12-01T16:14:13.456Z,95652.00
2018-12-01T16:16:43.757Z,95646.00
2018-12-01T16:19:14.130Z,95644.00
2018-12-01T16:21:44.592Z,95646.00
2018-12-01T16:24:14.861Z,95654.00
2018-12-01T16:26:45.164Z,95656.00
2018-12-01T16:29:15.440Z,95652.00
2018-12-01T16:31:45.783Z,95657.00
2018-12-01T16:34:16.151Z,95640.00
2018-12-01T16:36:46.790Z,95652.00
2018-12-01T16:39:17.052Z,95654.00
2018-12-01T16:41:47.831Z,95648.00
2018-12-01T16:44:18.675Z,95640.00
2018-12-01T16:46:49.033Z,95636.00
2018-12-01T16:49:19.310Z,95642.00
2018-12-01T16:51:50.117Z,95633.00
2018-12-01T16:54:20.517Z,95645.00
2018-12-01T16:56:52.004Z,95644.00
2018-12-01T16:59:22.271Z,95637.00
2018-12-01T17:01:53.148Z,95636.00
2018-12-01T17:04:28.312Z,95637.00
2018-12-01T17:06:58.771Z,95639.00
2018-12-01T17:09:29.104Z,95634.00
2018-12-01T17:11:59.449Z,95623.00
2018-12-01T17:14:29.809Z,95624.00
2018-12-01T17:17:00.623Z,95624.00
2018-12-01T17:19:30.890Z,95623.00
2018-12-01T17:22:01.349Z,95622.00
2018-12-01T17:24:31.673Z,95617.00
2018-12-01T17:27:02.384Z,95609.00
2018-12-01T17:29:36.597Z,95620.00
2018-12-01T17:32:03.105Z,95610.00
2018-12-01T17:34:33.368Z,95598.00
2018-12-01T17:37:03.920Z,95611.00
2018-12-01T17:39:34.337Z,95616.00
2018-12-01T17:42:04.853Z,95608.00
2018-12-01T17:44:35.120Z,95618.00
2018-12-01T17:47:05.681Z,95620.00
2018-12-01T17:49:35.940Z,95620.00
2018-12-01T17:52:06.802Z,95610.00
2018-12-01T17:54:38.241Z,95620.00
2018-12-01T17:57:10.128Z,95612.00
2018-12-01T17:59:41.384Z,95613.00
2018-12-01T18:02:13.032Z,95619.00
2018-12-01T18:04:44.333Z,95610.00
2018-12-01T18:07:16.158Z,95607.00
2018-12-01T18:09:47.476Z,95620.00
2018-12-01T18:12:18.856Z,95622.00
2018-12-01T18:14:49.580Z,95615.00
2018-12-01T18:17:19.977Z,95605.00
2018-12-01T18:19:50.269Z,95608.00
2018-12-01T18:22:20.896Z,95609.00
2018-12-01T18:24:53.157Z,95599.00
2018-12-01T18:27:24.607Z,95606.00
2018-12-01T18:29:58.014Z,95600.00
2018-12-01T18:32:29.599Z,95598.00
2018-12-01T18:35:00.858Z,95599.00
2018-12-01T18:37:32.581Z,95598.00
2018-12-01T18:40:04.152Z,95602.00
2018-12-01T18:42:35.572Z,95600.00
2018-12-01T18:45:11.255Z,95589.00
2018-12-01T18:47:42.760Z,95586.00
2018-12-01T18:50:17.986Z,95584.00
2018-12-01T18:52:59.980Z,95578.00
2018-12-01T18:55:33.701Z,95575.00
2018-12-01T18:58:04.390Z,95568.00
2018-12-01T19:00:50.381Z,95570.00
2018-12-01T19:03:24.152Z,95569.00
2018-12-01T19:05:54.430Z,95559.00
2018-12-01T19:08:24.933Z,95555.00
2018-12-01T19:10:55.410Z,95559.00
2018-12-01T19:13:25.698Z,95556.00
2018-12-01T19:15:56.808Z,95554.00
2018-12-01T19:18:28.344Z,95554.00
2018-12-01T19:20:59.799Z,95556.00
2018-12-01T19:23:31.312Z,95553.00
2018-12-01T19:26:03.236Z,95552.00
2018-12-01T19:28:34.927Z,95549.00
2018-12-01T19:31:05.887Z,95544.00
2018-12-01T19:33:37.249Z,95541.00
2018-12-01T19:36:07.916Z,95536.00
2018-12-01T19:38:39.297Z,95545.00
2018-12-01T19:41:10.476Z,95536.00
2018-12-01T19:43:40.844Z,95535.00
2018-12-01T19:46:11.133Z,95528.00
2018-12-01T19:48:41.368Z,95527.00
2018-12-01T19:51:12.069Z,95520.00
2018-12-01T19:53:42.317Z,95515.00
2018-12-01T19:56:12.628Z,95525.00
2018-12-01T19:58:42.980Z,95521.00
2018-12-01T20:01:13.401Z,95524.00
2018-12-01T20:03:43.634Z,95523.00
2018-12-01T20:06:13.903Z,95531.00
2018-12-01T20:08:44.174Z,95522.00
2018-12-01T20:11:15.310Z,95519.00
2018-12-01T20:13:48.097Z,95526.00
2018-12-01T20:16:40.056Z,95528.00
2018-12-01T20:19:10.549Z,95532.00
2018-12-01T20:21:40.877Z,95528.00
2018-12-01T20:24:11.355Z,95523.00
2018-12-01T20:26:42.969Z,95529.00
2018-12-01T20:29:14.124Z,95536.00
2018-12-01T20:31:44.604Z,95522.00
2018-12-01T20:34:15.228Z,95522.00
2018-12-01T20:36:52.601Z,95523.00
2018-12-01T20:39:27.656Z,95520.00
2018-12-01T20:41:58.184Z,95511.00
2018-12-01T20:44:28.466Z,95508.00
2018-12-01T20:46:58.709Z,95497.00
2018-12-01T20:49:30.445Z,95500.00
2018-12-01T20:52:02.166Z,95501.00
2018-12-01T20:54:38.563Z,95502.00
2018-12-01T20:57:32.051Z,95494.00
2018-12-01T21:00:03.471Z,95497.00
2018-12-01T21:02:35.645Z,95484.00
2018-12-01T21:05:11.151Z,95489.00
2018-12-01T21:07:42.470Z,95481.00
2018-12-01T21:10:22.749Z,95477.00
2018-12-01T21:12:54.417Z,95480.00
2018-12-01T21:15:26.219Z,95475.00
2018-12-01T21:17:57.493Z,95486.00
2018-12-01T21:20:29.180Z,95470.00
2018-12-01T21:23:00.112Z,95469.00
2018-12-01T21:25:31.611Z,95466.00
2018-12-01T21:28:03.672Z,95472.00
2018-12-01T21:30:34.699Z,95472.00
2018-12-01T21:33:14.949Z,95465.00
2018-12-01T21:35:46.967Z,95461.00
2018-12-01T21:38:18.161Z,95452.00
2018-12-01T21:40:50.614Z,95454.00
2018-12-01T21:43:22.819Z,95446.00
2018-12-01T21:45:54.841Z,95446.00
2018-12-01T21:48:27.259Z,95448.00
2018-12-01T21:50:59.384Z,95445.00
2018-12-01T21:53:31.748Z,95443.00
2018-12-01T21:56:03.115Z,95438.00
2018-12-01T21:58:33.946Z,95440.00
2018-12-01T22:01:05.825Z,95431.00
2018-12-01T22:03:37.483Z,95436.00
2018-12-01T22:06:08.662Z,95425.00
2018-12-01T22:08:39.384Z,95433.00
2018-12-01T22:11:14.991Z,95438.00
2018-12-01T22:13:45.421Z,95432.00
2018-12-01T22:16:15.784Z,95427.00
2018-12-01T22:18:46.142Z,95425.00
2018-12-01T22:21:16.462Z,95428.00
2018-12-01T22:23:46.754Z,95434.00
2018-12-01T22:26:17.106Z,95424.00
2018-12-01T22:28:47.413Z,95432.00
2018-12-01T22:31:17.826Z,95424.00
2018-12-01T22:33:48.157Z,95418.00
2018-12-01T22:36:18.461Z,95419.00
2018-12-01T22:38:48.830Z,95425.00
2018-12-01T22:41:19.124Z,95421.00
2018-12-01T22:43:49.549Z,95404.00
2018-12-01T22:46:20.000Z,95398.00
2018-12-01T22:48:50.384Z,95395.00
2018-12-01T22:51:21.052Z,95391.00
2018-12-01T22:53:51.564Z,95392.00
2018-12-01T22:56:22.152Z,95376.00
2018-12-01T22:58:52.671Z,95384.00
2018-12-01T23:01:23.060Z,95384.00
2018-12-01T23:03:56.224Z,95385.00
2018-12-01T23:06:26.606Z,95397.00
2018-12-01T23:08:57.444Z,95388.00
2018-12-01T23:11:28.410Z,95395.00
2018-12-01T23:13:58.830Z,95383.00
2018-12-01T23:16:29.192Z,95389.00
2018-12-01T23:19:00.080Z,95381.00
2018-12-01T23:21:30.413Z,95370.00
2018-12-01T23:24:01.085Z,95363.00
2018-12-01T23:26:31.387Z,95361.00
2018-12-01T23:29:03.134Z,95374.00
2018-12-01T23:31:33.437Z,95351.00
2018-12-01T23:34:03.753Z,95355.00
2018-12-01T23:36:34.058Z,95343.00
2018-12-01T23:39:04.992Z,95353.00
2018-12-01T23:41:35.697Z,95353.00
2018-12-01T23:44:07.280Z,95341.00
2018-12-01T23:46:37.573Z,95339.00
2018-12-01T23:49:07.947Z,95333.00
2018-12-01T23:51:38.260Z,95331.00
2018-12-01T23:54:08.642Z,95330.00
2018-12-01T23:56:39.009Z,95334.00
2018-12-01T23:59:09.383Z,95337.00
